ETD46V OMAA-OBBI
Flight info
| Callsign | ETD46V |
|---|---|
| Flight time | 0h 49m |
| Altitude | 26000 |
| Route | BOSEV1K BOSEV N563 IMGUX P699 ORMID Y856 ALKAN/N0381F180 Y856 SOLOB/N0371F160 Y856 ORDIG ORDIG1 |
| Aircraft | A320/M-SDE3FGHIRWY/LB1 |
Departure
| Time | 2026-05-04 16:18 |
|---|---|
| Airport | Zayed International Airport (OMAA) |
Arrival
| Time | 2026-05-04 17:08 |
|---|---|
| Airport | Bahrain International Airport (OBBI) |
| Time | Latitude | Longitude | Altitude | Speed | Heading |
|---|---|---|---|---|---|
| 2026-05-04 15:43 | 24.44530 | 54.64335 | 76 ft | 0 kts | 66° |
| 2026-05-04 16:00 | 24.44524 | 54.64321 | 76 ft | 0 kts | 66° |
| 2026-05-04 16:05 | 24.44515 | 54.64299 | 76 ft | 4 kts | 66° |
| 2026-05-04 16:05 | 24.44495 | 54.64248 | 76 ft | 3 kts | 67° |
| 2026-05-04 16:06 | 24.44490 | 54.64224 | 76 ft | 4 kts | 128° |
| 2026-05-04 16:06 | 24.44525 | 54.64211 | 76 ft | 0 kts | 157° |
| 2026-05-04 16:11 | 24.44435 | 54.64254 | 76 ft | 16 kts | 152° |
| 2026-05-04 16:11 | 24.44347 | 54.64344 | 76 ft | 19 kts | 127° |
| 2026-05-04 16:12 | 24.44073 | 54.64729 | 76 ft | 21 kts | 128° |
| 2026-05-04 16:12 | 24.43968 | 54.64751 | 76 ft | 0 kts | 216° |
| 2026-05-04 16:13 | 24.43911 | 54.64744 | 76 ft | 11 kts | 152° |
| 2026-05-04 16:14 | 24.43726 | 54.64994 | 76 ft | 34 kts | 128° |
| 2026-05-04 16:14 | 24.43610 | 54.65156 | 76 ft | 17 kts | 130° |
| 2026-05-04 16:15 | 24.43191 | 54.65740 | 76 ft | 40 kts | 129° |
| 2026-05-04 16:16 | 24.42776 | 54.66329 | 76 ft | 51 kts | 128° |
| 2026-05-04 16:16 | 24.42315 | 54.66674 | 75 ft | 22 kts | 217° |
| 2026-05-04 16:17 | 24.42300 | 54.66529 | 75 ft | 10 kts | 311° |
| 2026-05-04 16:18 | 24.43388 | 54.64981 | 221 ft | 169 kts | 306° |
| 2026-05-04 16:18 | 24.44113 | 54.63950 | 1075 ft | 174 kts | 307° |
| 2026-05-04 16:19 | 24.46679 | 54.60527 | 3171 ft | 220 kts | 310° |
| 2026-05-04 16:19 | 24.48666 | 54.57836 | 4448 ft | 246 kts | 306° |
| 2026-05-04 16:20 | 24.51983 | 54.52939 | 7516 ft | 273 kts | 306° |
| 2026-05-04 16:20 | 24.54303 | 54.49612 | 9798 ft | 275 kts | 307° |
| 2026-05-04 16:21 | 24.57773 | 54.44690 | 13102 ft | 271 kts | 307° |
| 2026-05-04 16:22 | 24.60112 | 54.41384 | 14873 ft | 276 kts | 307° |
| 2026-05-04 16:22 | 24.63668 | 54.36368 | 17139 ft | 286 kts | 307° |
| 2026-05-04 16:23 | 24.67495 | 54.30964 | 18649 ft | 311 kts | 307° |
| 2026-05-04 16:24 | 24.69042 | 54.28776 | 18881 ft | 331 kts | 307° |
| 2026-05-04 16:25 | 24.72011 | 54.24580 | 19212 ft | 362 kts | 307° |
| 2026-05-04 16:26 | 24.78488 | 54.15416 | 19719 ft | 395 kts | 307° |
| 2026-05-04 16:26 | 24.83669 | 54.08030 | 20097 ft | 416 kts | 304° |
| 2026-05-04 16:27 | 24.86783 | 54.02551 | 20350 ft | 428 kts | 301° |
| 2026-05-04 16:28 | 24.91548 | 53.94038 | 20727 ft | 441 kts | 301° |
| 2026-05-04 16:28 | 24.96407 | 53.85337 | 21255 ft | 445 kts | 301° |
| 2026-05-04 16:29 | 25.03242 | 53.74172 | 22341 ft | 439 kts | 315° |
| 2026-05-04 16:30 | 25.09784 | 53.67159 | 23166 ft | 435 kts | 315° |
| 2026-05-04 16:31 | 25.14105 | 53.62506 | 23715 ft | 433 kts | 315° |
| 2026-05-04 16:31 | 25.20311 | 53.55746 | 24158 ft | 395 kts | 315° |
| 2026-05-04 16:32 | 25.25872 | 53.49641 | 24154 ft | 358 kts | 315° |
| 2026-05-04 16:33 | 25.29332 | 53.45917 | 24151 ft | 337 kts | 315° |
| 2026-05-04 16:33 | 25.32612 | 53.42400 | 24063 ft | 323 kts | 315° |
| 2026-05-04 16:34 | 25.35766 | 53.39011 | 24006 ft | 308 kts | 315° |
| 2026-05-04 16:34 | 25.37280 | 53.37376 | 24007 ft | 300 kts | 315° |
| 2026-05-04 16:35 | 25.41667 | 53.32654 | 23648 ft | 291 kts | 315° |
| 2026-05-04 16:35 | 25.45663 | 53.28336 | 24003 ft | 248 kts | 315° |
| 2026-05-04 16:36 | 25.46878 | 53.26974 | 24023 ft | 253 kts | 311° |
| 2026-05-04 16:36 | 25.49014 | 53.23839 | 24521 ft | 257 kts | 299° |
| 2026-05-04 16:37 | 25.50478 | 53.20218 | 25022 ft | 259 kts | 286° |
| 2026-05-04 16:37 | 25.50925 | 53.18301 | 25177 ft | 265 kts | 282° |
| 2026-05-04 16:37 | 25.51754 | 53.14176 | 25233 ft | 284 kts | 282° |
| 2026-05-04 16:38 | 25.52658 | 53.09763 | 25228 ft | 303 kts | 282° |
| 2026-05-04 16:39 | 25.54132 | 53.02550 | 25199 ft | 340 kts | 282° |
| 2026-05-04 16:39 | 25.55215 | 52.97241 | 25209 ft | 367 kts | 282° |
| 2026-05-04 16:40 | 25.56480 | 52.91569 | 25212 ft | 392 kts | 289° |
| 2026-05-04 16:40 | 25.58928 | 52.85974 | 25214 ft | 416 kts | 298° |
| 2026-05-04 16:41 | 25.61761 | 52.80186 | 25215 ft | 438 kts | 298° |
| 2026-05-04 16:41 | 25.66214 | 52.71046 | 25217 ft | 463 kts | 298° |
| 2026-05-04 16:42 | 25.70880 | 52.61424 | 25218 ft | 481 kts | 298° |
| 2026-05-04 16:43 | 25.74085 | 52.54822 | 25218 ft | 490 kts | 298° |
| 2026-05-04 16:43 | 25.77333 | 52.48110 | 25218 ft | 497 kts | 297° |
| 2026-05-04 16:43 | 25.78938 | 52.44700 | 25218 ft | 500 kts | 297° |
| 2026-05-04 16:44 | 25.85316 | 52.30821 | 24718 ft | 509 kts | 297° |
| 2026-05-04 16:45 | 25.89302 | 52.24350 | 24219 ft | 511 kts | 312° |
| 2026-05-04 16:46 | 25.96527 | 52.15657 | 23474 ft | 512 kts | 312° |
| 2026-05-04 16:46 | 26.01368 | 52.09811 | 22723 ft | 515 kts | 312° |
| 2026-05-04 16:47 | 26.06184 | 52.03976 | 21972 ft | 509 kts | 312° |
| 2026-05-04 16:47 | 26.10939 | 51.98213 | 21222 ft | 502 kts | 312° |
| 2026-05-04 16:48 | 26.17933 | 51.89730 | 20120 ft | 493 kts | 312° |
| 2026-05-04 16:48 | 26.20244 | 51.86926 | 19781 ft | 490 kts | 312° |
| 2026-05-04 16:49 | 26.24720 | 51.81288 | 19109 ft | 473 kts | 305° |
| 2026-05-04 16:49 | 26.27648 | 51.75362 | 18363 ft | 408 kts | 296° |
| 2026-05-04 16:50 | 26.30016 | 51.70026 | 17583 ft | 363 kts | 296° |
| 2026-05-04 16:50 | 26.32182 | 51.65172 | 16585 ft | 339 kts | 296° |
| 2026-05-04 16:51 | 26.34254 | 51.60540 | 15583 ft | 330 kts | 296° |
| 2026-05-04 16:51 | 26.35268 | 51.58261 | 15083 ft | 324 kts | 296° |
| 2026-05-04 16:51 | 26.37258 | 51.53794 | 14087 ft | 323 kts | 296° |
| 2026-05-04 16:52 | 26.38911 | 51.49108 | 13086 ft | 327 kts | 289° |
| 2026-05-04 16:52 | 26.39674 | 51.46715 | 12585 ft | 328 kts | 289° |
| 2026-05-04 16:53 | 26.41184 | 51.42010 | 12219 ft | 309 kts | 289° |
| 2026-05-04 16:53 | 26.43235 | 51.35591 | 12232 ft | 286 kts | 289° |
| 2026-05-04 16:54 | 26.43903 | 51.33502 | 12232 ft | 286 kts | 289° |
| 2026-05-04 16:55 | 26.44831 | 51.24814 | 12232 ft | 285 kts | 261° |
| 2026-05-04 16:55 | 26.43777 | 51.20576 | 11783 ft | 282 kts | 247° |
| 2026-05-04 16:56 | 26.41856 | 51.16850 | 11282 ft | 278 kts | 225° |
| 2026-05-04 16:56 | 26.37665 | 51.12416 | 10531 ft | 275 kts | 223° |
| 2026-05-04 16:57 | 26.36289 | 51.10983 | 10307 ft | 273 kts | 223° |
| 2026-05-04 16:57 | 26.33529 | 51.08111 | 9893 ft | 269 kts | 223° |
| 2026-05-04 16:58 | 26.29487 | 51.03908 | 8391 ft | 261 kts | 223° |
| 2026-05-04 16:58 | 26.28162 | 51.02531 | 7889 ft | 259 kts | 223° |
| 2026-05-04 16:59 | 26.25550 | 50.99817 | 6892 ft | 254 kts | 223° |
| 2026-05-04 17:00 | 26.20461 | 50.94647 | 5220 ft | 230 kts | 215° |
| 2026-05-04 17:00 | 26.16724 | 50.91907 | 4349 ft | 208 kts | 213° |
| 2026-05-04 17:01 | 26.14329 | 50.90185 | 3596 ft | 202 kts | 213° |
| 2026-05-04 17:01 | 26.12171 | 50.88273 | 2834 ft | 198 kts | 244° |
| 2026-05-04 17:02 | 26.12645 | 50.85513 | 2242 ft | 196 kts | 319° |
| 2026-05-04 17:02 | 26.14650 | 50.83387 | 2235 ft | 200 kts | 312° |
| 2026-05-04 17:03 | 26.15595 | 50.82257 | 2224 ft | 200 kts | 312° |
| 2026-05-04 17:03 | 26.16539 | 50.81125 | 2227 ft | 199 kts | 312° |
| 2026-05-04 17:03 | 26.18163 | 50.78757 | 2230 ft | 182 kts | 303° |
| 2026-05-04 17:04 | 26.19529 | 50.76428 | 2234 ft | 178 kts | 302° |
| 2026-05-04 17:04 | 26.20861 | 50.74129 | 1955 ft | 167 kts | 302° |
| 2026-05-04 17:05 | 26.22023 | 50.72122 | 1563 ft | 145 kts | 302° |
| 2026-05-04 17:05 | 26.23094 | 50.70271 | 1191 ft | 140 kts | 302° |
| 2026-05-04 17:06 | 26.24146 | 50.68451 | 819 ft | 139 kts | 302° |
| 2026-05-04 17:06 | 26.24669 | 50.67548 | 637 ft | 139 kts | 302° |
| 2026-05-04 17:07 | 26.25711 | 50.65747 | 242 ft | 138 kts | 302° |
| 2026-05-04 17:07 | 26.25890 | 50.65446 | 178 ft | 138 kts | 302° |
| 2026-05-04 17:07 | 26.26731 | 50.63983 | 20 ft | 124 kts | 297° |
| 2026-05-04 17:07 | 26.27088 | 50.63358 | 14 ft | 56 kts | 302° |
| 2026-05-04 17:08 | 26.27254 | 50.63032 | 16 ft | 31 kts | 278° |
| 2026-05-04 17:08 | 26.27255 | 50.62848 | 18 ft | 0 kts | 269° |
| 2026-05-04 17:08 | 26.27255 | 50.62843 | 18 ft | 2 kts | 271° |
| 2026-05-04 17:09 | 26.27255 | 50.62841 | 18 ft | 0 kts | 271° |
| 2026-05-04 17:09 | 26.27255 | 50.62840 | 18 ft | 0 kts | 270° |
| 2026-05-04 17:10 | 26.27255 | 50.62836 | 18 ft | 0 kts | 267° |